sensor_id;sensor_type;location;lat;lon;timestamp;temperature;humidity
75786;DHT22;64402;44.708;37.644;2024-01-15T00:00:05;6.33;69.78
75786;DHT22;64402;44.708;37.644;2024-01-15T00:02:32;6.34;70.05
75786;DHT22;64402;44.708;37.644;2024-01-15T00:04:59;6.19;72.93
75786;DHT22;64402;44.708;37.644;2024-01-15T00:07:25;6.23;72.13
75786;DHT22;64402;44.708;37.644;2024-01-15T00:09:51;6.10;73.81
75786;DHT22;64402;44.708;37.644;2024-01-15T00:12:18;6.09;75.89
75786;DHT22;64402;44.708;37.644;2024-01-15T00:14:44;6.04;74.82
75786;DHT22;64402;44.708;37.644;2024-01-15T00:17:11;5.97;76.48
75786;DHT22;64402;44.708;37.644;2024-01-15T00:19:38;5.91;78.60
75786;DHT22;64402;44.708;37.644;2024-01-15T00:22:04;5.86;78.46
75786;DHT22;64402;44.708;37.644;2024-01-15T00:24:31;5.81;81.33
75786;DHT22;64402;44.708;37.644;2024-01-15T00:26:57;5.79;79.06
75786;DHT22;64402;44.708;37.644;2024-01-15T00:29:25;5.68;83.85
75786;DHT22;64402;44.708;37.644;2024-01-15T00:31:51;5.57;84.00
75786;DHT22;64402;44.708;37.644;2024-01-15T00:34:18;5.53;85.13
75786;DHT22;64402;44.708;37.644;2024-01-15T00:36:44;5.59;84.74
75786;DHT22;64402;44.708;37.644;2024-01-15T00:39:11;5.71;79.62
75786;DHT22;64402;44.708;37.644;2024-01-15T00:41:37;5.82;76.13
75786;DHT22;64402;44.708;37.644;2024-01-15T00:44:04;5.98;74.55
75786;DHT22;64402;44.708;37.644;2024-01-15T00:46:30;6.06;71.69
75786;DHT22;64402;44.708;37.644;2024-01-15T00:48:57;6.25;69.07
75786;DHT22;64402;44.708;37.644;2024-01-15T00:51:23;6.50;66.62
75786;DHT22;64402;44.708;37.644;2024-01-15T00:53:50;6.58;66.93
75786;DHT22;64402;44.708;37.644;2024-01-15T00:56:16;6.63;63.46
75786;DHT22;64402;44.708;37.644;2024-01-15T00:58:43;6.69;63.99
75786;DHT22;64402;44.708;37.644;2024-01-15T01:01:09;6.71;61.76
75786;DHT22;64402;44.708;37.644;2024-01-15T01:03:36;6.76;59.44
75786;DHT22;64402;44.708;37.644;2024-01-15T01:06:02;6.81;60.28
75786;DHT22;64402;44.708;37.644;2024-01-15T01:08:29;6.80;62.06
75786;DHT22;64402;44.708;37.644;2024-01-15T01:10:55;6.78;59.71
75786;DHT22;64402;44.708;37.644;2024-01-15T01:13:22;6.78;60.20
75786;DHT22;64402;44.708;37.644;2024-01-15T01:15:49;6.76;59.61
75786;DHT22;64402;44.708;37.644;2024-01-15T01:18:15;6.71;59.15
75786;DHT22;64402;44.708;37.644;2024-01-15T01:20:42;6.70;59.16
75786;DHT22;64402;44.708;37.644;2024-01-15T01:23:08;6.71;59.03
75786;DHT22;64402;44.708;37.644;2024-01-15T01:25:35;6.75;60.01
75786;DHT22;64402;44.708;37.644;2024-01-15T01:28:01;6.75;60.36
75786;DHT22;64402;44.708;37.644;2024-01-15T01:30:27;6.74;60.85
75786;DHT22;64402;44.708;37.644;2024-01-15T01:32:54;6.69;59.80
75786;DHT22;64402;44.708;37.644;2024-01-15T01:35:20;6.67;57.85
75786;DHT22;64402;44.708;37.644;2024-01-15T01:37:46;6.65;58.66
75786;DHT22;64402;44.708;37.644;2024-01-15T01:40:13;6.61;60.80
75786;DHT22;64402;44.708;37.644;2024-01-15T01:42:39;6.60;59.40
75786;DHT22;64402;44.708;37.644;2024-01-15T01:45:05;6.70;58.37
75786;DHT22;64402;44.708;37.644;2024-01-15T01:47:32;6.75;57.78
75786;DHT22;64402;44.708;37.644;2024-01-15T01:49:58;6.81;58.68
75786;DHT22;64402;44.708;37.644;2024-01-15T01:52:24;6.83;59.67
75786;DHT22;64402;44.708;37.644;2024-01-15T01:54:51;6.87;60.18
75786;DHT22;64402;44.708;37.644;2024-01-15T01:57:18;6.88;60.32
75786;DHT22;64402;44.708;37.644;2024-01-15T01:59:46;6.90;58.80
75786;DHT22;64402;44.708;37.644;2024-01-15T02:02:13;6.96;59.87
75786;DHT22;64402;44.708;37.644;2024-01-15T02:04:40;6.99;59.32
75786;DHT22;64402;44.708;37.644;2024-01-15T02:07:06;7.01;59.99
75786;DHT22;64402;44.708;37.644;2024-01-15T02:09:32;7.04;57.35
75786;DHT22;64402;44.708;37.644;2024-01-15T02:11:58;7.09;60.00
75786;DHT22;64402;44.708;37.644;2024-01-15T02:14:25;7.09;57.11
75786;DHT22;64402;44.708;37.644;2024-01-15T02:16:51;7.12;58.16
75786;DHT22;64402;44.708;37.644;2024-01-15T02:19:18;7.09;58.78
75786;DHT22;64402;44.708;37.644;2024-01-15T02:21:44;7.10;58.60
75786;DHT22;64402;44.708;37.644;2024-01-15T02:24:11;7.11;59.81
75786;DHT22;64402;44.708;37.644;2024-01-15T02:26:37;7.12;59.80
75786;DHT22;64402;44.708;37.644;2024-01-15T02:29:06;7.16;59.61
75786;DHT22;64402;44.708;37.644;2024-01-15T02:31:35;7.17;59.00
75786;DHT22;64402;44.708;37.644;2024-01-15T02:34:02;7.17;58.37
75786;DHT22;64402;44.708;37.644;2024-01-15T02:36:28;7.17;59.36
75786;DHT22;64402;44.708;37.644;2024-01-15T02:38:54;7.17;59.61
75786;DHT22;64402;44.708;37.644;2024-01-15T02:41:21;7.18;59.13
75786;DHT22;64402;44.708;37.644;2024-01-15T02:43:47;7.19;60.44
75786;DHT22;64402;44.708;37.644;2024-01-15T02:46:13;7.19;61.28
75786;DHT22;64402;44.708;37.644;2024-01-15T02:48:39;7.18;61.37
75786;DHT22;64402;44.708;37.644;2024-01-15T02:51:05;7.24;60.90
75786;DHT22;64402;44.708;37.644;2024-01-15T02:53:31;7.26;62.21
75786;DHT22;64402;44.708;37.644;2024-01-15T02:55:58;7.26;61.96
75786;DHT22;64402;44.708;37.644;2024-01-15T02:58:24;7.27;61.59
75786;DHT22;64402;44.708;37.644;2024-01-15T03:00:50;7.29;60.96
75786;DHT22;64402;44.708;37.644;2024-01-15T03:03:16;7.27;61.65
75786;DHT22;64402;44.708;37.644;2024-01-15T03:05:42;7.26;62.84
75786;DHT22;64402;44.708;37.644;2024-01-15T03:08:08;7.18;63.17
75786;DHT22;64402;44.708;37.644;2024-01-15T03:10:34;7.15;64.01
75786;DHT22;64402;44.708;37.644;2024-01-15T03:13:01;7.00;69.84
75786;DHT22;64402;44.708;37.644;2024-01-15T03:15:27;6.12;75.62
75786;DHT22;64402;44.708;37.644;2024-01-15T03:17:53;5.92;78.28
75786;DHT22;64402;44.708;37.644;2024-01-15T03:20:20;5.92;77.68
75786;DHT22;64402;44.708;37.644;2024-01-15T03:22:46;6.04;75.54
75786;DHT22;64402;44.708;37.644;2024-01-15T03:25:12;6.26;72.18
75786;DHT22;64402;44.708;37.644;2024-01-15T03:27:38;6.43;71.28
75786;DHT22;64402;44.708;37.644;2024-01-15T03:30:05;6.45;71.85
75786;DHT22;64402;44.708;37.644;2024-01-15T03:32:31;6.40;73.07
75786;DHT22;64402;44.708;37.644;2024-01-15T03:34:57;6.40;73.35
75786;DHT22;64402;44.708;37.644;2024-01-15T03:37:23;6.44;73.23
75786;DHT22;64402;44.708;37.644;2024-01-15T03:39:56;6.50;74.28
75786;DHT22;64402;44.708;37.644;2024-01-15T03:42:22;6.50;74.61
75786;DHT22;64402;44.708;37.644;2024-01-15T03:44:49;6.46;74.85
75786;DHT22;64402;44.708;37.644;2024-01-15T03:47:15;6.41;76.00
75786;DHT22;64402;44.708;37.644;2024-01-15T03:49:41;6.34;77.63
75786;DHT22;64402;44.708;37.644;2024-01-15T03:52:07;6.25;79.24
75786;DHT22;64402;44.708;37.644;2024-01-15T03:54:33;6.14;79.82
75786;DHT22;64402;44.708;37.644;2024-01-15T03:56:59;6.10;80.33
75786;DHT22;64402;44.708;37.644;2024-01-15T03:59:26;6.07;80.56
75786;DHT22;64402;44.708;37.644;2024-01-15T04:01:52;6.06;81.31
75786;DHT22;64402;44.708;37.644;2024-01-15T04:04:18;6.02;81.52
75786;DHT22;64402;44.708;37.644;2024-01-15T04:06:45;5.99;81.94
75786;DHT22;64402;44.708;37.644;2024-01-15T04:09:12;5.95;82.78
75786;DHT22;64402;44.708;37.644;2024-01-15T04:11:39;5.90;83.68
75786;DHT22;64402;44.708;37.644;2024-01-15T04:14:06;5.76;87.44
75786;DHT22;64402;44.708;37.644;2024-01-15T04:16:32;5.63;86.90
75786;DHT22;64402;44.708;37.644;2024-01-15T04:18:58;5.57;88.27
75786;DHT22;64402;44.708;37.644;2024-01-15T04:21:24;5.49;87.84
75786;DHT22;64402;44.708;37.644;2024-01-15T04:23:50;5.41;88.21
75786;DHT22;64402;44.708;37.644;2024-01-15T04:26:17;5.36;88.42
75786;DHT22;64402;44.708;37.644;2024-01-15T04:28:43;5.35;89.21
75786;DHT22;64402;44.708;37.644;2024-01-15T04:31:09;5.40;89.02
75786;DHT22;64402;44.708;37.644;2024-01-15T04:33:35;5.42;89.14
75786;DHT22;64402;44.708;37.644;2024-01-15T04:36:03;5.46;89.66
75786;DHT22;64402;44.708;37.644;2024-01-15T04:38:29;5.51;89.77
75786;DHT22;64402;44.708;37.644;2024-01-15T04:40:55;5.59;90.65
75786;DHT22;64402;44.708;37.644;2024-01-15T04:43:22;5.70;91.08
75786;DHT22;64402;44.708;37.644;2024-01-15T04:45:48;5.84;90.55
75786;DHT22;64402;44.708;37.644;2024-01-15T04:48:14;5.98;90.40
75786;DHT22;64402;44.708;37.644;2024-01-15T04:50:40;6.10;89.75
75786;DHT22;64402;44.708;37.644;2024-01-15T04:53:06;6.20;86.99
75786;DHT22;64402;44.708;37.644;2024-01-15T04:55:33;6.34;84.35
75786;DHT22;64402;44.708;37.644;2024-01-15T04:57:59;6.45;83.14
75786;DHT22;64402;44.708;37.644;2024-01-15T05:00:25;6.54;81.75
75786;DHT22;64402;44.708;37.644;2024-01-15T05:02:51;6.69;80.78
75786;DHT22;64402;44.708;37.644;2024-01-15T05:05:18;6.76;79.82
75786;DHT22;64402;44.708;37.644;2024-01-15T05:07:44;6.87;78.29
75786;DHT22;64402;44.708;37.644;2024-01-15T05:10:10;6.96;78.09
75786;DHT22;64402;44.708;37.644;2024-01-15T05:12:36;7.01;78.01
75786;DHT22;64402;44.708;37.644;2024-01-15T05:15:03;6.99;78.08
75786;DHT22;64402;44.708;37.644;2024-01-15T05:17:29;6.98;78.43
75786;DHT22;64402;44.708;37.644;2024-01-15T05:19:56;7.02;78.75
75786;DHT22;64402;44.708;37.644;2024-01-15T05:22:22;7.02;78.47
75786;DHT22;64402;44.708;37.644;2024-01-15T05:24:50;7.05;79.02
75786;DHT22;64402;44.708;37.644;2024-01-15T05:27:19;7.08;79.35
75786;DHT22;64402;44.708;37.644;2024-01-15T05:29:45;7.13;78.71
75786;DHT22;64402;44.708;37.644;2024-01-15T05:32:11;7.19;78.79
75786;DHT22;64402;44.708;37.644;2024-01-15T05:34:38;7.24;78.38
75786;DHT22;64402;44.708;37.644;2024-01-15T05:37:04;7.29;78.32
75786;DHT22;64402;44.708;37.644;2024-01-15T05:39:30;7.34;78.43
75786;DHT22;64402;44.708;37.644;2024-01-15T05:41:58;7.45;78.59
75786;DHT22;64402;44.708;37.644;2024-01-15T05:44:24;7.60;77.65
75786;DHT22;64402;44.708;37.644;2024-01-15T05:46:51;7.67;77.92
75786;DHT22;64402;44.708;37.644;2024-01-15T05:49:17;7.78;77.65
75786;DHT22;64402;44.708;37.644;2024-01-15T05:51:43;7.87;77.47
75786;DHT22;64402;44.708;37.644;2024-01-15T05:54:09;7.94;77.47
75786;DHT22;64402;44.708;37.644;2024-01-15T05:56:35;7.94;75.31
75786;DHT22;64402;44.708;37.644;2024-01-15T05:59:02;7.99;72.19
75786;DHT22;64402;44.708;37.644;2024-01-15T06:01:28;8.00;69.93
75786;DHT22;64402;44.708;37.644;2024-01-15T06:03:54;8.06;71.64
75786;DHT22;64402;44.708;37.644;2024-01-15T06:06:20;8.03;73.95
75786;DHT22;64402;44.708;37.644;2024-01-15T06:08:46;7.98;73.36
75786;DHT22;64402;44.708;37.644;2024-01-15T06:11:12;8.00;71.19
75786;DHT22;64402;44.708;37.644;2024-01-15T06:13:39;8.03;71.61
75786;DHT22;64402;44.708;37.644;2024-01-15T06:16:14;8.07;70.93
75786;DHT22;64402;44.708;37.644;2024-01-15T06:18:41;8.13;72.06
75786;DHT22;64402;44.708;37.644;2024-01-15T06:21:08;8.05;73.80
75786;DHT22;64402;44.708;37.644;2024-01-15T06:23:37;7.91;72.50
75786;DHT22;64402;44.708;37.644;2024-01-15T06:26:03;7.73;72.12
75786;DHT22;64402;44.708;37.644;2024-01-15T06:28:30;7.60;75.02
75786;DHT22;64402;44.708;37.644;2024-01-15T06:30:57;7.49;73.32
75786;DHT22;64402;44.708;37.644;2024-01-15T06:33:24;7.47;74.35
75786;DHT22;64402;44.708;37.644;2024-01-15T06:35:50;7.42;74.42
75786;DHT22;64402;44.708;37.644;2024-01-15T06:38:16;7.44;74.21
75786;DHT22;64402;44.708;37.644;2024-01-15T06:40:43;7.44;71.95
75786;DHT22;64402;44.708;37.644;2024-01-15T06:43:14;7.43;72.48
75786;DHT22;64402;44.708;37.644;2024-01-15T06:45:41;7.42;73.74
75786;DHT22;64402;44.708;37.644;2024-01-15T06:48:07;7.44;72.77
75786;DHT22;64402;44.708;37.644;2024-01-15T06:50:34;7.42;72.30
75786;DHT22;64402;44.708;37.644;2024-01-15T06:53:00;7.39;74.98
75786;DHT22;64402;44.708;37.644;2024-01-15T06:55:26;7.34;75.23
75786;DHT22;64402;44.708;37.644;2024-01-15T06:57:53;7.24;80.78
75786;DHT22;64402;44.708;37.644;2024-01-15T07:00:20;7.13;80.74
75786;DHT22;64402;44.708;37.644;2024-01-15T07:02:46;7.07;79.75
75786;DHT22;64402;44.708;37.644;2024-01-15T07:05:12;7.08;78.72
75786;DHT22;64402;44.708;37.644;2024-01-15T07:07:38;7.14;79.70
75786;DHT22;64402;44.708;37.644;2024-01-15T07:10:05;7.15;81.07
75786;DHT22;64402;44.708;37.644;2024-01-15T07:12:32;7.13;81.62
75786;DHT22;64402;44.708;37.644;2024-01-15T07:14:58;7.14;83.04
75786;DHT22;64402;44.708;37.644;2024-01-15T07:17:24;7.15;82.49
75786;DHT22;64402;44.708;37.644;2024-01-15T07:19:50;7.16;82.49
75786;DHT22;64402;44.708;37.644;2024-01-15T07:22:16;7.16;83.70
75786;DHT22;64402;44.708;37.644;2024-01-15T07:24:43;7.17;82.88
75786;DHT22;64402;44.708;37.644;2024-01-15T07:27:10;7.19;83.65
75786;DHT22;64402;44.708;37.644;2024-01-15T07:29:36;7.47;81.00
75786;DHT22;64402;44.708;37.644;2024-01-15T07:32:03;7.88;78.35
75786;DHT22;64402;44.708;37.644;2024-01-15T07:34:30;8.14;75.65
75786;DHT22;64402;44.708;37.644;2024-01-15T07:36:57;8.34;76.28
75786;DHT22;64402;44.708;37.644;2024-01-15T07:39:24;8.47;75.46
75786;DHT22;64402;44.708;37.644;2024-01-15T07:41:51;8.76;73.43
75786;DHT22;64402;44.708;37.644;2024-01-15T07:44:18;8.83;73.94
75786;DHT22;64402;44.708;37.644;2024-01-15T07:46:45;8.86;73.45
75786;DHT22;64402;44.708;37.644;2024-01-15T07:49:12;8.90;71.78
75786;DHT22;64402;44.708;37.644;2024-01-15T07:51:39;8.96;71.30
75786;DHT22;64402;44.708;37.644;2024-01-15T07:54:06;9.02;70.86
75786;DHT22;64402;44.708;37.644;2024-01-15T07:56:33;9.03;72.41
75786;DHT22;64402;44.708;37.644;2024-01-15T07:59:00;9.11;71.56
75786;DHT22;64402;44.708;37.644;2024-01-15T08:01:26;9.23;70.48
75786;DHT22;64402;44.708;37.644;2024-01-15T08:03:53;9.37;68.31
75786;DHT22;64402;44.708;37.644;2024-01-15T08:06:21;9.67;68.02
75786;DHT22;64402;44.708;37.644;2024-01-15T08:08:47;9.56;68.17
75786;DHT22;64402;44.708;37.644;2024-01-15T08:11:14;9.54;67.59
75786;DHT22;64402;44.708;37.644;2024-01-15T08:13:40;9.47;67.29
75786;DHT22;64402;44.708;37.644;2024-01-15T08:16:07;9.33;67.72
75786;DHT22;64402;44.708;37.644;2024-01-15T08:18:33;9.18;67.83
75786;DHT22;64402;44.708;37.644;2024-01-15T08:21:00;9.16;69.68
75786;DHT22;64402;44.708;37.644;2024-01-15T08:23:26;9.20;69.49
75786;DHT22;64402;44.708;37.644;2024-01-15T08:25:54;9.17;70.39
75786;DHT22;64402;44.708;37.644;2024-01-15T08:28:20;9.14;71.53
75786;DHT22;64402;44.708;37.644;2024-01-15T08:30:47;9.11;71.62
75786;DHT22;64402;44.708;37.644;2024-01-15T08:33:13;9.14;70.16
75786;DHT22;64402;44.708;37.644;2024-01-15T08:35:40;9.18;71.67
75786;DHT22;64402;44.708;37.644;2024-01-15T08:38:06;9.26;70.37
75786;DHT22;64402;44.708;37.644;2024-01-15T08:40:33;9.44;69.38
75786;DHT22;64402;44.708;37.644;2024-01-15T08:42:59;9.47;67.93
75786;DHT22;64402;44.708;37.644;2024-01-15T08:45:26;9.49;68.71
75786;DHT22;64402;44.708;37.644;2024-01-15T08:47:52;9.42;68.75
75786;DHT22;64402;44.708;37.644;2024-01-15T08:50:19;9.42;68.33
75786;DHT22;64402;44.708;37.644;2024-01-15T08:52:45;9.47;68.56
75786;DHT22;64402;44.708;37.644;2024-01-15T08:55:13;9.67;68.66
75786;DHT22;64402;44.708;37.644;2024-01-15T08:57:39;9.74;67.82
75786;DHT22;64402;44.708;37.644;2024-01-15T09:00:06;9.63;69.03
75786;DHT22;64402;44.708;37.644;2024-01-15T09:02:34;9.45;70.36
75786;DHT22;64402;44.708;37.644;2024-01-15T09:05:02;9.41;71.15
75786;DHT22;64402;44.708;37.644;2024-01-15T09:07:30;9.40;71.60
75786;DHT22;64402;44.708;37.644;2024-01-15T09:09:57;9.44;72.03
75786;DHT22;64402;44.708;37.644;2024-01-15T09:12:26;9.44;70.90
75786;DHT22;64402;44.708;37.644;2024-01-15T09:14:53;9.33;71.32
75786;DHT22;64402;44.708;37.644;2024-01-15T09:17:20;9.41;71.03
75786;DHT22;64402;44.708;37.644;2024-01-15T09:19:49;9.51;71.86
75786;DHT22;64402;44.708;37.644;2024-01-15T09:22:16;9.54;71.79
75786;DHT22;64402;44.708;37.644;2024-01-15T09:24:45;9.40;71.20
75786;DHT22;64402;44.708;37.644;2024-01-15T09:27:12;9.33;72.07
75786;DHT22;64402;44.708;37.644;2024-01-15T09:29:38;9.31;71.27
75786;DHT22;64402;44.708;37.644;2024-01-15T09:32:08;9.34;71.53
75786;DHT22;64402;44.708;37.644;2024-01-15T09:34:35;9.37;70.98
75786;DHT22;64402;44.708;37.644;2024-01-15T09:37:01;9.39;71.76
75786;DHT22;64402;44.708;37.644;2024-01-15T09:39:28;9.47;71.09
75786;DHT22;64402;44.708;37.644;2024-01-15T09:41:55;9.52;70.19
75786;DHT22;64402;44.708;37.644;2024-01-15T09:44:21;9.60;70.63
75786;DHT22;64402;44.708;37.644;2024-01-15T09:46:48;9.64;70.41
75786;DHT22;64402;44.708;37.644;2024-01-15T09:49:16;9.84;70.07
75786;DHT22;64402;44.708;37.644;2024-01-15T09:51:43;9.91;69.21
75786;DHT22;64402;44.708;37.644;2024-01-15T09:54:10;9.78;68.43
75786;DHT22;64402;44.708;37.644;2024-01-15T09:56:36;9.60;68.69
75786;DHT22;64402;44.708;37.644;2024-01-15T09:59:02;9.46;68.85
75786;DHT22;64402;44.708;37.644;2024-01-15T10:01:32;9.37;69.46
75786;DHT22;64402;44.708;37.644;2024-01-15T10:03:58;9.36;70.07
75786;DHT22;64402;44.708;37.644;2024-01-15T10:06:26;9.39;69.12
75786;DHT22;64402;44.708;37.644;2024-01-15T10:08:54;9.41;69.06
75786;DHT22;64402;44.708;37.644;2024-01-15T10:11:21;9.39;68.47
75786;DHT22;64402;44.708;37.644;2024-01-15T10:13:47;9.33;67.48
75786;DHT22;64402;44.708;37.644;2024-01-15T10:16:19;9.30;67.79
75786;DHT22;64402;44.708;37.644;2024-01-15T10:18:45;9.31;68.26
75786;DHT22;64402;44.708;37.644;2024-01-15T10:21:11;9.32;67.91
75786;DHT22;64402;44.708;37.644;2024-01-15T10:23:38;9.31;68.04
75786;DHT22;64402;44.708;37.644;2024-01-15T10:26:04;9.32;67.87
75786;DHT22;64402;44.708;37.644;2024-01-15T10:28:30;9.33;67.27
75786;DHT22;64402;44.708;37.644;2024-01-15T10:30:58;9.33;67.66
75786;DHT22;64402;44.708;37.644;2024-01-15T10:33:25;9.41;66.99
75786;DHT22;64402;44.708;37.644;2024-01-15T10:36:00;9.52;65.48
75786;DHT22;64402;44.708;37.644;2024-01-15T10:38:27;9.57;65.82
75786;DHT22;64402;44.708;37.644;2024-01-15T10:40:54;9.51;65.13
75786;DHT22;64402;44.708;37.644;2024-01-15T10:43:21;9.42;65.77
75786;DHT22;64402;44.708;37.644;2024-01-15T10:45:49;9.34;65.82
75786;DHT22;64402;44.708;37.644;2024-01-15T10:48:18;9.42;65.68
75786;DHT22;64402;44.708;37.644;2024-01-15T10:50:46;9.51;66.20
75786;DHT22;64402;44.708;37.644;2024-01-15T10:53:14;9.48;66.24
75786;DHT22;64402;44.708;37.644;2024-01-15T10:55:42;9.54;65.88
75786;DHT22;64402;44.708;37.644;2024-01-15T10:58:09;9.65;66.48
75786;DHT22;64402;44.708;37.644;2024-01-15T11:00:37;9.60;65.19
75786;DHT22;64402;44.708;37.644;2024-01-15T11:03:04;9.72;66.11
75786;DHT22;64402;44.708;37.644;2024-01-15T11:05:41;10.40;63.25
75786;DHT22;64402;44.708;37.644;2024-01-15T11:08:08;10.24;63.18
75786;DHT22;64402;44.708;37.644;2024-01-15T11:10:43;9.96;64.06
75786;DHT22;64402;44.708;37.644;2024-01-15T11:13:18;9.72;65.05
75786;DHT22;64402;44.708;37.644;2024-01-15T11:16:01;9.54;65.73
75786;DHT22;64402;44.708;37.644;2024-01-15T11:18:34;9.48;66.60
75786;DHT22;64402;44.708;37.644;2024-01-15T11:23:47;9.36;66.92
75786;DHT22;64402;44.708;37.644;2024-01-15T11:29:09;9.26;67.06
75786;DHT22;64402;44.708;37.644;2024-01-15T11:34:07;9.24;66.75
75786;DHT22;64402;44.708;37.644;2024-01-15T11:42:01;9.17;66.56
75786;DHT22;64402;44.708;37.644;2024-01-15T11:44:29;9.15;66.64
75786;DHT22;64402;44.708;37.644;2024-01-15T11:47:02;9.15;66.86
75786;DHT22;64402;44.708;37.644;2024-01-15T11:52:02;9.21;66.07
75786;DHT22;64402;44.708;37.644;2024-01-15T11:54:37;9.23;65.78
75786;DHT22;64402;44.708;37.644;2024-01-15T11:57:10;9.24;66.12
75786;DHT22;64402;44.708;37.644;2024-01-15T11:59:41;9.31;66.90
75786;DHT22;64402;44.708;37.644;2024-01-15T12:02:07;9.34;64.87
75786;DHT22;64402;44.708;37.644;2024-01-15T12:04:34;9.36;65.13
75786;DHT22;64402;44.708;37.644;2024-01-15T12:07:00;9.35;65.81
75786;DHT22;64402;44.708;37.644;2024-01-15T12:09:27;9.37;65.18
75786;DHT22;64402;44.708;37.644;2024-01-15T12:12:03;9.38;65.59
75786;DHT22;64402;44.708;37.644;2024-01-15T12:14:33;9.36;64.37
75786;DHT22;64402;44.708;37.644;2024-01-15T12:17:00;9.37;64.54
75786;DHT22;64402;44.708;37.644;2024-01-15T12:19:27;9.38;64.28
75786;DHT22;64402;44.708;37.644;2024-01-15T12:21:54;9.35;64.53
75786;DHT22;64402;44.708;37.644;2024-01-15T12:24:20;9.32;64.74
75786;DHT22;64402;44.708;37.644;2024-01-15T12:26:47;9.25;65.02
75786;DHT22;64402;44.708;37.644;2024-01-15T12:29:13;9.22;64.15
75786;DHT22;64402;44.708;37.644;2024-01-15T12:31:39;9.14;64.45
75786;DHT22;64402;44.708;37.644;2024-01-15T12:34:05;9.10;64.15
75786;DHT22;64402;44.708;37.644;2024-01-15T12:36:32;9.06;63.85
75786;DHT22;64402;44.708;37.644;2024-01-15T12:39:01;9.07;64.93
75786;DHT22;64402;44.708;37.644;2024-01-15T12:41:28;9.05;64.71
75786;DHT22;64402;44.708;37.644;2024-01-15T12:43:55;9.03;64.63
75786;DHT22;64402;44.708;37.644;2024-01-15T12:46:21;9.02;65.01
75786;DHT22;64402;44.708;37.644;2024-01-15T12:48:50;9.00;65.37
75786;DHT22;64402;44.708;37.644;2024-01-15T12:51:17;8.97;65.40
75786;DHT22;64402;44.708;37.644;2024-01-15T12:53:43;8.96;64.76
75786;DHT22;64402;44.708;37.644;2024-01-15T12:56:10;8.97;65.27
75786;DHT22;64402;44.708;37.644;2024-01-15T12:58:36;8.98;66.66
75786;DHT22;64402;44.708;37.644;2024-01-15T13:01:03;8.98;66.36
75786;DHT22;64402;44.708;37.644;2024-01-15T13:03:30;8.97;66.30
75786;DHT22;64402;44.708;37.644;2024-01-15T13:05:57;8.96;66.96
75786;DHT22;64402;44.708;37.644;2024-01-15T13:08:23;8.94;67.27
75786;DHT22;64402;44.708;37.644;2024-01-15T13:10:52;8.94;67.81
75786;DHT22;64402;44.708;37.644;2024-01-15T13:13:22;8.96;68.46
75786;DHT22;64402;44.708;37.644;2024-01-15T13:15:49;8.93;67.28
75786;DHT22;64402;44.708;37.644;2024-01-15T13:18:16;8.95;67.99
75786;DHT22;64402;44.708;37.644;2024-01-15T13:20:42;8.95;67.08
75786;DHT22;64402;44.708;37.644;2024-01-15T13:23:09;8.95;66.56
75786;DHT22;64402;44.708;37.644;2024-01-15T13:25:36;8.95;66.93
75786;DHT22;64402;44.708;37.644;2024-01-15T13:28:07;8.93;66.95
75786;DHT22;64402;44.708;37.644;2024-01-15T13:30:34;8.93;67.26
75786;DHT22;64402;44.708;37.644;2024-01-15T13:33:00;8.92;67.01
75786;DHT22;64402;44.708;37.644;2024-01-15T13:35:30;8.91;66.53
75786;DHT22;64402;44.708;37.644;2024-01-15T13:37:58;8.90;66.24
75786;DHT22;64402;44.708;37.644;2024-01-15T13:40:25;8.89;66.29
75786;DHT22;64402;44.708;37.644;2024-01-15T13:42:52;8.88;65.73
75786;DHT22;64402;44.708;37.644;2024-01-15T13:45:20;8.89;66.75
75786;DHT22;64402;44.708;37.644;2024-01-15T13:47:47;8.88;66.48
75786;DHT22;64402;44.708;37.644;2024-01-15T13:50:13;8.86;66.53
75786;DHT22;64402;44.708;37.644;2024-01-15T13:52:40;8.87;67.26
75786;DHT22;64402;44.708;37.644;2024-01-15T13:55:07;8.88;66.98
75786;DHT22;64402;44.708;37.644;2024-01-15T13:57:35;8.87;66.07
75786;DHT22;64402;44.708;37.644;2024-01-15T14:00:02;8.88;66.00
75786;DHT22;64402;44.708;37.644;2024-01-15T14:02:28;8.88;66.17
75786;DHT22;64402;44.708;37.644;2024-01-15T14:04:57;8.87;66.69
75786;DHT22;64402;44.708;37.644;2024-01-15T14:07:23;8.85;66.61
75786;DHT22;64402;44.708;37.644;2024-01-15T14:09:50;8.82;66.45
75786;DHT22;64402;44.708;37.644;2024-01-15T14:12:18;8.77;66.19
75786;DHT22;64402;44.708;37.644;2024-01-15T14:14:44;8.76;66.97
75786;DHT22;64402;44.708;37.644;2024-01-15T14:17:11;8.77;65.99
75786;DHT22;64402;44.708;37.644;2024-01-15T14:19:38;8.77;66.36
75786;DHT22;64402;44.708;37.644;2024-01-15T14:22:04;8.77;66.55
75786;DHT22;64402;44.708;37.644;2024-01-15T14:24:31;8.79;67.01
75786;DHT22;64402;44.708;37.644;2024-01-15T14:26:57;8.79;66.85
75786;DHT22;64402;44.708;37.644;2024-01-15T14:29:24;8.79;67.57
75786;DHT22;64402;44.708;37.644;2024-01-15T14:31:53;8.78;66.62
75786;DHT22;64402;44.708;37.644;2024-01-15T14:34:19;8.79;65.65
75786;DHT22;64402;44.708;37.644;2024-01-15T14:36:49;8.77;66.12
75786;DHT22;64402;44.708;37.644;2024-01-15T14:39:16;8.77;67.06
75786;DHT22;64402;44.708;37.644;2024-01-15T14:41:42;8.75;67.04
75786;DHT22;64402;44.708;37.644;2024-01-15T14:44:11;8.76;67.09
75786;DHT22;64402;44.708;37.644;2024-01-15T14:46:38;8.76;66.90
75786;DHT22;64402;44.708;37.644;2024-01-15T14:49:04;8.77;67.46
75786;DHT22;64402;44.708;37.644;2024-01-15T14:51:30;8.79;67.83
75786;DHT22;64402;44.708;37.644;2024-01-15T14:53:57;8.78;67.14
75786;DHT22;64402;44.708;37.644;2024-01-15T14:56:23;8.80;66.94
75786;DHT22;64402;44.708;37.644;2024-01-15T14:58:49;8.80;66.97
75786;DHT22;64402;44.708;37.644;2024-01-15T15:01:16;8.81;67.75
75786;DHT22;64402;44.708;37.644;2024-01-15T15:03:42;8.79;67.49
75786;DHT22;64402;44.708;37.644;2024-01-15T15:06:10;8.80;66.34
75786;DHT22;64402;44.708;37.644;2024-01-15T15:08:37;8.81;67.24
75786;DHT22;64402;44.708;37.644;2024-01-15T15:11:04;8.82;66.01
75786;DHT22;64402;44.708;37.644;2024-01-15T15:13:30;8.83;64.14
75786;DHT22;64402;44.708;37.644;2024-01-15T15:15:57;8.86;64.48
75786;DHT22;64402;44.708;37.644;2024-01-15T15:18:23;8.85;64.31
75786;DHT22;64402;44.708;37.644;2024-01-15T15:20:50;8.83;63.54
75786;DHT22;64402;44.708;37.644;2024-01-15T15:23:18;8.83;63.35
75786;DHT22;64402;44.708;37.644;2024-01-15T15:25:44;8.86;62.42
75786;DHT22;64402;44.708;37.644;2024-01-15T15:28:10;8.86;63.29
75786;DHT22;64402;44.708;37.644;2024-01-15T15:30:37;8.87;65.22
75786;DHT22;64402;44.708;37.644;2024-01-15T15:33:04;8.86;65.93
75786;DHT22;64402;44.708;37.644;2024-01-15T15:35:31;8.87;67.03
75786;DHT22;64402;44.708;37.644;2024-01-15T15:37:57;8.83;66.28
75786;DHT22;64402;44.708;37.644;2024-01-15T15:40:24;8.82;64.93
75786;DHT22;64402;44.708;37.644;2024-01-15T15:42:53;8.81;64.76